sensor_id;sensor_type;location;lat;lon;timestamp;P1;durP1;ratioP1;P2;durP2;ratioP2
65174;SDS011;51761;42.126;24.752;2023-06-14T00:00:38;10.05;;;6.32;;
65174;SDS011;51761;42.126;24.752;2023-06-14T00:03:06;10.98;;;6.15;;
65174;SDS011;51761;42.126;24.752;2023-06-14T00:05:35;9.55;;;6.63;;
65174;SDS011;51761;42.126;24.752;2023-06-14T00:08:06;8.20;;;6.47;;
65174;SDS011;51761;42.126;24.752;2023-06-14T00:10:33;9.15;;;6.78;;
65174;SDS011;51761;42.126;24.752;2023-06-14T00:13:03;10.13;;;7.20;;
65174;SDS011;51761;42.126;24.752;2023-06-14T00:15:30;9.93;;;6.82;;
65174;SDS011;51761;42.126;24.752;2023-06-14T00:17:57;13.13;;;7.30;;
65174;SDS011;51761;42.126;24.752;2023-06-14T00:20:26;9.82;;;6.75;;
65174;SDS011;51761;42.126;24.752;2023-06-14T00:22:53;10.68;;;6.38;;
65174;SDS011;51761;42.126;24.752;2023-06-14T00:25:23;11.35;;;7.13;;
65174;SDS011;51761;42.126;24.752;2023-06-14T00:27:50;10.18;;;6.78;;
65174;SDS011;51761;42.126;24.752;2023-06-14T00:30:16;9.07;;;6.90;;
65174;SDS011;51761;42.126;24.752;2023-06-14T00:32:42;14.63;;;7.57;;
65174;SDS011;51761;42.126;24.752;2023-06-14T00:35:08;10.90;;;7.80;;
65174;SDS011;51761;42.126;24.752;2023-06-14T00:37:34;11.20;;;7.32;;
65174;SDS011;51761;42.126;24.752;2023-06-14T00:40:00;14.35;;;7.30;;
65174;SDS011;51761;42.126;24.752;2023-06-14T00:42:26;11.98;;;7.53;;
65174;SDS011;51761;42.126;24.752;2023-06-14T00:44:52;14.77;;;7.28;;
65174;SDS011;51761;42.126;24.752;2023-06-14T00:47:18;12.57;;;8.15;;
65174;SDS011;51761;42.126;24.752;2023-06-14T00:49:47;12.82;;;6.93;;
65174;SDS011;51761;42.126;24.752;2023-06-14T00:52:15;9.60;;;7.72;;
65174;SDS011;51761;42.126;24.752;2023-06-14T00:54:41;10.35;;;7.10;;
65174;SDS011;51761;42.126;24.752;2023-06-14T00:57:08;9.85;;;7.10;;
65174;SDS011;51761;42.126;24.752;2023-06-14T00:59:36;11.05;;;6.95;;
65174;SDS011;51761;42.126;24.752;2023-06-14T01:02:07;12.52;;;7.65;;
65174;SDS011;51761;42.126;24.752;2023-06-14T01:04:32;15.32;;;8.60;;
65174;SDS011;51761;42.126;24.752;2023-06-14T01:07:02;15.30;;;7.90;;
65174;SDS011;51761;42.126;24.752;2023-06-14T01:09:52;10.45;;;7.07;;
65174;SDS011;51761;42.126;24.752;2023-06-14T01:15:34;12.88;;;8.55;;
65174;SDS011;51761;42.126;24.752;2023-06-14T01:18:01;13.55;;;8.30;;
65174;SDS011;51761;42.126;24.752;2023-06-14T01:20:32;11.98;;;8.60;;
65174;SDS011;51761;42.126;24.752;2023-06-14T01:23:02;14.43;;;8.18;;
65174;SDS011;51761;42.126;24.752;2023-06-14T01:25:28;13.90;;;8.50;;
65174;SDS011;51761;42.126;24.752;2023-06-14T01:28:00;14.57;;;8.98;;
65174;SDS011;51761;42.126;24.752;2023-06-14T01:30:28;13.07;;;8.45;;
65174;SDS011;51761;42.126;24.752;2023-06-14T01:32:56;12.43;;;8.75;;
65174;SDS011;51761;42.126;24.752;2023-06-14T01:35:23;14.07;;;9.05;;
65174;SDS011;51761;42.126;24.752;2023-06-14T01:37:49;11.07;;;8.63;;
65174;SDS011;51761;42.126;24.752;2023-06-14T01:40:15;11.68;;;8.00;;
65174;SDS011;51761;42.126;24.752;2023-06-14T01:42:42;12.43;;;8.13;;
65174;SDS011;51761;42.126;24.752;2023-06-14T01:45:09;13.60;;;8.80;;
65174;SDS011;51761;42.126;24.752;2023-06-14T01:47:35;13.02;;;8.50;;
65174;SDS011;51761;42.126;24.752;2023-06-14T01:50:02;12.00;;;8.25;;
65174;SDS011;51761;42.126;24.752;2023-06-14T01:52:29;15.25;;;8.93;;
65174;SDS011;51761;42.126;24.752;2023-06-14T01:54:55;10.23;;;7.82;;
65174;SDS011;51761;42.126;24.752;2023-06-14T01:57:21;14.13;;;8.40;;
65174;SDS011;51761;42.126;24.752;2023-06-14T01:59:47;13.20;;;8.65;;
65174;SDS011;51761;42.126;24.752;2023-06-14T02:02:14;12.60;;;9.07;;
65174;SDS011;51761;42.126;24.752;2023-06-14T02:04:40;13.52;;;8.60;;
65174;SDS011;51761;42.126;24.752;2023-06-14T02:07:06;16.65;;;8.77;;
65174;SDS011;51761;42.126;24.752;2023-06-14T02:09:31;12.25;;;9.35;;
65174;SDS011;51761;42.126;24.752;2023-06-14T02:11:57;12.88;;;8.68;;
65174;SDS011;51761;42.126;24.752;2023-06-14T02:14:23;12.13;;;9.13;;
65174;SDS011;51761;42.126;24.752;2023-06-14T02:16:48;11.32;;;8.82;;
65174;SDS011;51761;42.126;24.752;2023-06-14T02:19:14;13.82;;;9.77;;
65174;SDS011;51761;42.126;24.752;2023-06-14T02:21:41;17.55;;;8.93;;
65174;SDS011;51761;42.126;24.752;2023-06-14T02:24:07;18.42;;;9.40;;
65174;SDS011;51761;42.126;24.752;2023-06-14T02:26:33;12.32;;;9.20;;
65174;SDS011;51761;42.126;24.752;2023-06-14T02:28:59;10.75;;;7.88;;
65174;SDS011;51761;42.126;24.752;2023-06-14T02:31:25;13.90;;;8.75;;
65174;SDS011;51761;42.126;24.752;2023-06-14T02:33:50;14.15;;;7.95;;
65174;SDS011;51761;42.126;24.752;2023-06-14T02:36:16;14.65;;;8.85;;
65174;SDS011;51761;42.126;24.752;2023-06-14T02:38:41;13.60;;;8.50;;
65174;SDS011;51761;42.126;24.752;2023-06-14T02:41:07;13.73;;;8.20;;
65174;SDS011;51761;42.126;24.752;2023-06-14T02:43:33;11.18;;;8.23;;
65174;SDS011;51761;42.126;24.752;2023-06-14T02:45:58;11.48;;;9.00;;
65174;SDS011;51761;42.126;24.752;2023-06-14T02:48:24;15.00;;;8.60;;
65174;SDS011;51761;42.126;24.752;2023-06-14T02:50:49;10.73;;;7.90;;
65174;SDS011;51761;42.126;24.752;2023-06-14T02:53:16;11.55;;;7.80;;
65174;SDS011;51761;42.126;24.752;2023-06-14T02:55:42;18.05;;;8.10;;
65174;SDS011;51761;42.126;24.752;2023-06-14T02:58:07;13.02;;;8.48;;
65174;SDS011;51761;42.126;24.752;2023-06-14T03:00:33;11.45;;;7.57;;
65174;SDS011;51761;42.126;24.752;2023-06-14T03:03:00;11.25;;;7.95;;
65174;SDS011;51761;42.126;24.752;2023-06-14T03:05:26;12.27;;;8.57;;
65174;SDS011;51761;42.126;24.752;2023-06-14T03:07:53;10.95;;;7.30;;
65174;SDS011;51761;42.126;24.752;2023-06-14T03:10:19;15.40;;;7.70;;
65174;SDS011;51761;42.126;24.752;2023-06-14T03:12:44;14.93;;;8.50;;
65174;SDS011;51761;42.126;24.752;2023-06-14T03:15:10;12.57;;;7.93;;
65174;SDS011;51761;42.126;24.752;2023-06-14T03:17:38;12.57;;;8.00;;
65174;SDS011;51761;42.126;24.752;2023-06-14T03:20:04;13.60;;;7.72;;
65174;SDS011;51761;42.126;24.752;2023-06-14T03:22:30;17.67;;;7.93;;
65174;SDS011;51761;42.126;24.752;2023-06-14T03:24:57;14.00;;;8.68;;
65174;SDS011;51761;42.126;24.752;2023-06-14T03:27:24;11.25;;;7.72;;
65174;SDS011;51761;42.126;24.752;2023-06-14T03:29:50;17.45;;;7.53;;
65174;SDS011;51761;42.126;24.752;2023-06-14T03:32:16;8.93;;;7.40;;
65174;SDS011;51761;42.126;24.752;2023-06-14T03:34:42;17.90;;;8.82;;
65174;SDS011;51761;42.126;24.752;2023-06-14T03:37:07;11.57;;;7.82;;
65174;SDS011;51761;42.126;24.752;2023-06-14T03:39:33;14.95;;;7.30;;
65174;SDS011;51761;42.126;24.752;2023-06-14T03:41:58;11.27;;;7.50;;
65174;SDS011;51761;42.126;24.752;2023-06-14T03:44:26;14.35;;;9.00;;
65174;SDS011;51761;42.126;24.752;2023-06-14T03:46:51;14.80;;;8.05;;
65174;SDS011;51761;42.126;24.752;2023-06-14T03:49:18;20.67;;;12.20;;
65174;SDS011;51761;42.126;24.752;2023-06-14T03:51:44;12.45;;;7.18;;
65174;SDS011;51761;42.126;24.752;2023-06-14T03:54:16;20.08;;;13.02;;
65174;SDS011;51761;42.126;24.752;2023-06-14T03:56:41;14.82;;;9.10;;
65174;SDS011;51761;42.126;24.752;2023-06-14T03:59:07;10.43;;;7.50;;
65174;SDS011;51761;42.126;24.752;2023-06-14T04:01:32;15.88;;;7.63;;
65174;SDS011;51761;42.126;24.752;2023-06-14T04:03:58;18.17;;;9.73;;
65174;SDS011;51761;42.126;24.752;2023-06-14T04:06:24;39.25;;;23.88;;
65174;SDS011;51761;42.126;24.752;2023-06-14T04:08:57;21.40;;;11.00;;
65174;SDS011;51761;42.126;24.752;2023-06-14T04:11:26;15.88;;;7.78;;
65174;SDS011;51761;42.126;24.752;2023-06-14T04:13:52;17.65;;;8.35;;
65174;SDS011;51761;42.126;24.752;2023-06-14T04:16:19;15.63;;;7.90;;
65174;SDS011;51761;42.126;24.752;2023-06-14T04:18:44;18.17;;;9.05;;
65174;SDS011;51761;42.126;24.752;2023-06-14T04:21:11;25.30;;;12.95;;
65174;SDS011;51761;42.126;24.752;2023-06-14T04:23:37;55.42;;;26.80;;
65174;SDS011;51761;42.126;24.752;2023-06-14T04:26:03;17.05;;;10.48;;
65174;SDS011;51761;42.126;24.752;2023-06-14T04:28:29;15.15;;;8.98;;
65174;SDS011;51761;42.126;24.752;2023-06-14T04:30:55;12.77;;;9.00;;
65174;SDS011;51761;42.126;24.752;2023-06-14T04:33:21;15.68;;;9.50;;
65174;SDS011;51761;42.126;24.752;2023-06-14T04:35:47;22.42;;;11.05;;
65174;SDS011;51761;42.126;24.752;2023-06-14T04:38:13;16.42;;;10.18;;
65174;SDS011;51761;42.126;24.752;2023-06-14T04:40:41;19.02;;;10.57;;
65174;SDS011;51761;42.126;24.752;2023-06-14T04:43:09;20.20;;;10.98;;
65174;SDS011;51761;42.126;24.752;2023-06-14T04:45:37;19.45;;;11.20;;
65174;SDS011;51761;42.126;24.752;2023-06-14T04:48:04;23.35;;;10.45;;
65174;SDS011;51761;42.126;24.752;2023-06-14T04:50:31;15.10;;;10.48;;
65174;SDS011;51761;42.126;24.752;2023-06-14T04:52:58;20.85;;;10.68;;
65174;SDS011;51761;42.126;24.752;2023-06-14T04:55:24;18.13;;;10.25;;
65174;SDS011;51761;42.126;24.752;2023-06-14T04:57:51;18.40;;;9.68;;
65174;SDS011;51761;42.126;24.752;2023-06-14T05:00:18;18.40;;;9.73;;
65174;SDS011;51761;42.126;24.752;2023-06-14T05:02:45;39.22;;;21.15;;
65174;SDS011;51761;42.126;24.752;2023-06-14T05:05:12;21.67;;;11.68;;
65174;SDS011;51761;42.126;24.752;2023-06-14T05:07:37;29.98;;;11.75;;
65174;SDS011;51761;42.126;24.752;2023-06-14T05:10:03;22.40;;;11.82;;
65174;SDS011;51761;42.126;24.752;2023-06-14T05:12:30;27.10;;;12.32;;
65174;SDS011;51761;42.126;24.752;2023-06-14T05:14:55;28.38;;;12.50;;
65174;SDS011;51761;42.126;24.752;2023-06-14T05:17:23;24.10;;;13.20;;
65174;SDS011;51761;42.126;24.752;2023-06-14T05:19:49;19.35;;;12.70;;
65174;SDS011;51761;42.126;24.752;2023-06-14T05:22:14;26.52;;;11.98;;
65174;SDS011;51761;42.126;24.752;2023-06-14T05:24:40;27.60;;;13.35;;
65174;SDS011;51761;42.126;24.752;2023-06-14T05:27:07;21.48;;;12.85;;
65174;SDS011;51761;42.126;24.752;2023-06-14T05:29:32;26.23;;;13.93;;
65174;SDS011;51761;42.126;24.752;2023-06-14T05:31:57;20.73;;;13.38;;
65174;SDS011;51761;42.126;24.752;2023-06-14T05:34:23;27.42;;;13.27;;
65174;SDS011;51761;42.126;24.752;2023-06-14T05:36:50;29.90;;;14.55;;
65174;SDS011;51761;42.126;24.752;2023-06-14T05:39:16;24.00;;;12.82;;
65174;SDS011;51761;42.126;24.752;2023-06-14T05:41:42;21.77;;;12.82;;
65174;SDS011;51761;42.126;24.752;2023-06-14T05:44:09;21.73;;;12.18;;
65174;SDS011;51761;42.126;24.752;2023-06-14T05:46:34;26.52;;;12.68;;
65174;SDS011;51761;42.126;24.752;2023-06-14T05:49:00;25.50;;;14.07;;
65174;SDS011;51761;42.126;24.752;2023-06-14T05:51:25;23.70;;;13.68;;
65174;SDS011;51761;42.126;24.752;2023-06-14T05:53:51;24.50;;;13.05;;
65174;SDS011;51761;42.126;24.752;2023-06-14T05:56:17;21.85;;;13.82;;
65174;SDS011;51761;42.126;24.752;2023-06-14T05:58:44;25.55;;;14.38;;
65174;SDS011;51761;42.126;24.752;2023-06-14T06:01:10;27.48;;;12.85;;
65174;SDS011;51761;42.126;24.752;2023-06-14T06:03:36;26.77;;;14.77;;
65174;SDS011;51761;42.126;24.752;2023-06-14T06:06:02;25.65;;;14.30;;
65174;SDS011;51761;42.126;24.752;2023-06-14T06:08:28;29.83;;;16.13;;
65174;SDS011;51761;42.126;24.752;2023-06-14T06:10:54;26.00;;;14.48;;
65174;SDS011;51761;42.126;24.752;2023-06-14T06:13:19;23.20;;;13.20;;
65174;SDS011;51761;42.126;24.752;2023-06-14T06:15:45;21.65;;;13.10;;
65174;SDS011;51761;42.126;24.752;2023-06-14T06:18:11;19.00;;;12.38;;
65174;SDS011;51761;42.126;24.752;2023-06-14T06:20:37;30.80;;;14.77;;
65174;SDS011;51761;42.126;24.752;2023-06-14T06:23:02;26.70;;;14.63;;
65174;SDS011;51761;42.126;24.752;2023-06-14T06:25:28;25.70;;;13.00;;
65174;SDS011;51761;42.126;24.752;2023-06-14T06:27:54;25.05;;;13.95;;
65174;SDS011;51761;42.126;24.752;2023-06-14T06:30:21;26.55;;;12.82;;
65174;SDS011;51761;42.126;24.752;2023-06-14T06:32:47;26.45;;;12.45;;
65174;SDS011;51761;42.126;24.752;2023-06-14T06:35:12;20.15;;;12.90;;
65174;SDS011;51761;42.126;24.752;2023-06-14T06:37:38;22.77;;;12.27;;
65174;SDS011;51761;42.126;24.752;2023-06-14T06:40:04;21.92;;;12.55;;
65174;SDS011;51761;42.126;24.752;2023-06-14T06:42:31;31.02;;;16.85;;
65174;SDS011;51761;42.126;24.752;2023-06-14T06:44:57;19.67;;;13.55;;
65174;SDS011;51761;42.126;24.752;2023-06-14T06:47:22;29.55;;;16.00;;
65174;SDS011;51761;42.126;24.752;2023-06-14T06:49:48;22.73;;;12.65;;
65174;SDS011;51761;42.126;24.752;2023-06-14T06:52:13;22.77;;;13.57;;
65174;SDS011;51761;42.126;24.752;2023-06-14T06:54:39;21.88;;;11.52;;
65174;SDS011;51761;42.126;24.752;2023-06-14T06:57:05;18.65;;;10.82;;
65174;SDS011;51761;42.126;24.752;2023-06-14T06:59:31;28.92;;;12.20;;
65174;SDS011;51761;42.126;24.752;2023-06-14T07:01:57;24.25;;;12.27;;
65174;SDS011;51761;42.126;24.752;2023-06-14T07:04:22;19.95;;;13.02;;
65174;SDS011;51761;42.126;24.752;2023-06-14T07:06:48;25.92;;;14.95;;
65174;SDS011;51761;42.126;24.752;2023-06-14T07:09:13;18.67;;;12.25;;
65174;SDS011;51761;42.126;24.752;2023-06-14T07:11:43;24.75;;;11.68;;
65174;SDS011;51761;42.126;24.752;2023-06-14T07:14:09;16.83;;;11.35;;
65174;SDS011;51761;42.126;24.752;2023-06-14T07:16:35;15.07;;;11.18;;
65174;SDS011;51761;42.126;24.752;2023-06-14T07:19:01;15.32;;;11.15;;
65174;SDS011;51761;42.126;24.752;2023-06-14T07:21:27;16.90;;;10.63;;
65174;SDS011;51761;42.126;24.752;2023-06-14T07:23:53;17.20;;;10.98;;
65174;SDS011;51761;42.126;24.752;2023-06-14T07:26:19;21.10;;;11.75;;
65174;SDS011;51761;42.126;24.752;2023-06-14T07:28:46;17.77;;;11.15;;
65174;SDS011;51761;42.126;24.752;2023-06-14T07:31:13;18.38;;;10.20;;
65174;SDS011;51761;42.126;24.752;2023-06-14T07:33:39;15.25;;;10.35;;
65174;SDS011;51761;42.126;24.752;2023-06-14T07:36:05;15.35;;;9.63;;
65174;SDS011;51761;42.126;24.752;2023-06-14T07:38:31;20.10;;;11.23;;
65174;SDS011;51761;42.126;24.752;2023-06-14T07:40:56;22.17;;;11.40;;
65174;SDS011;51761;42.126;24.752;2023-06-14T07:43:21;23.13;;;11.77;;
65174;SDS011;51761;42.126;24.752;2023-06-14T07:45:47;26.17;;;12.23;;
65174;SDS011;51761;42.126;24.752;2023-06-14T07:48:12;21.73;;;13.23;;
65174;SDS011;51761;42.126;24.752;2023-06-14T07:50:38;19.30;;;12.98;;
65174;SDS011;51761;42.126;24.752;2023-06-14T07:53:03;24.33;;;13.02;;
65174;SDS011;51761;42.126;24.752;2023-06-14T07:55:29;26.65;;;14.10;;
65174;SDS011;51761;42.126;24.752;2023-06-14T07:57:57;20.08;;;11.90;;
65174;SDS011;51761;42.126;24.752;2023-06-14T08:00:23;18.42;;;11.02;;
65174;SDS011;51761;42.126;24.752;2023-06-14T08:02:49;21.33;;;12.20;;
65174;SDS011;51761;42.126;24.752;2023-06-14T08:05:17;19.90;;;12.68;;
65174;SDS011;51761;42.126;24.752;2023-06-14T08:07:42;21.02;;;13.10;;
65174;SDS011;51761;42.126;24.752;2023-06-14T08:10:08;23.70;;;13.23;;
65174;SDS011;51761;42.126;24.752;2023-06-14T08:12:33;20.52;;;12.00;;
65174;SDS011;51761;42.126;24.752;2023-06-14T08:14:59;18.35;;;12.27;;
65174;SDS011;51761;42.126;24.752;2023-06-14T08:17:25;18.80;;;12.98;;
65174;SDS011;51761;42.126;24.752;2023-06-14T08:19:51;20.15;;;12.63;;
65174;SDS011;51761;42.126;24.752;2023-06-14T08:22:19;17.25;;;12.48;;
65174;SDS011;51761;42.126;24.752;2023-06-14T08:24:46;21.50;;;12.48;;
65174;SDS011;51761;42.126;24.752;2023-06-14T08:27:12;22.23;;;12.30;;
65174;SDS011;51761;42.126;24.752;2023-06-14T08:29:38;17.23;;;12.38;;
65174;SDS011;51761;42.126;24.752;2023-06-14T08:32:05;19.55;;;12.00;;
65174;SDS011;51761;42.126;24.752;2023-06-14T08:34:31;19.88;;;12.15;;
65174;SDS011;51761;42.126;24.752;2023-06-14T08:36:57;21.52;;;12.57;;
65174;SDS011;51761;42.126;24.752;2023-06-14T08:39:22;19.98;;;13.32;;
65174;SDS011;51761;42.126;24.752;2023-06-14T08:41:48;21.83;;;12.02;;
65174;SDS011;51761;42.126;24.752;2023-06-14T08:44:17;17.27;;;12.60;;
65174;SDS011;51761;42.126;24.752;2023-06-14T08:46:42;17.10;;;11.50;;
65174;SDS011;51761;42.126;24.752;2023-06-14T08:49:11;21.90;;;11.43;;
65174;SDS011;51761;42.126;24.752;2023-06-14T08:51:37;18.42;;;10.88;;
65174;SDS011;51761;42.126;24.752;2023-06-14T08:54:05;22.63;;;11.90;;
65174;SDS011;51761;42.126;24.752;2023-06-14T08:56:32;22.42;;;11.52;;
65174;SDS011;51761;42.126;24.752;2023-06-14T08:58:59;16.33;;;10.15;;
65174;SDS011;51761;42.126;24.752;2023-06-14T09:01:30;16.58;;;10.63;;
65174;SDS011;51761;42.126;24.752;2023-06-14T09:03:59;25.30;;;11.40;;
65174;SDS011;51761;42.126;24.752;2023-06-14T09:06:25;15.20;;;10.70;;
65174;SDS011;51761;42.126;24.752;2023-06-14T09:08:53;14.65;;;10.30;;
65174;SDS011;51761;42.126;24.752;2023-06-14T09:11:21;14.75;;;9.65;;
65174;SDS011;51761;42.126;24.752;2023-06-14T09:13:47;13.25;;;9.52;;
65174;SDS011;51761;42.126;24.752;2023-06-14T09:16:14;20.23;;;10.18;;
65174;SDS011;51761;42.126;24.752;2023-06-14T09:18:43;14.07;;;10.40;;
65174;SDS011;51761;42.126;24.752;2023-06-14T09:21:13;12.77;;;10.40;;
65174;SDS011;51761;42.126;24.752;2023-06-14T09:23:40;18.52;;;10.65;;
65174;SDS011;51761;42.126;24.752;2023-06-14T09:26:11;15.90;;;10.85;;
65174;SDS011;51761;42.126;24.752;2023-06-14T09:28:41;23.40;;;10.82;;
65174;SDS011;51761;42.126;24.752;2023-06-14T09:31:10;28.70;;;20.83;;
65174;SDS011;51761;42.126;24.752;2023-06-14T09:33:36;15.65;;;10.55;;
65174;SDS011;51761;42.126;24.752;2023-06-14T09:36:02;21.80;;;15.45;;
65174;SDS011;51761;42.126;24.752;2023-06-14T09:38:29;32.30;;;12.00;;
65174;SDS011;51761;42.126;24.752;2023-06-14T09:40:56;16.83;;;11.80;;
65174;SDS011;51761;42.126;24.752;2023-06-14T09:43:23;33.30;;;10.50;;
65174;SDS011;51761;42.126;24.752;2023-06-14T09:45:48;14.95;;;11.27;;
65174;SDS011;51761;42.126;24.752;2023-06-14T09:48:16;22.48;;;12.52;;
65174;SDS011;51761;42.126;24.752;2023-06-14T09:50:44;20.83;;;10.40;;
65174;SDS011;51761;42.126;24.752;2023-06-14T09:53:12;19.10;;;9.98;;
65174;SDS011;51761;42.126;24.752;2023-06-14T09:55:40;18.98;;;10.85;;
65174;SDS011;51761;42.126;24.752;2023-06-14T09:58:06;13.93;;;10.65;;
65174;SDS011;51761;42.126;24.752;2023-06-14T10:00:33;14.02;;;9.75;;
65174;SDS011;51761;42.126;24.752;2023-06-14T10:03:21;22.33;;;12.25;;
65174;SDS011;51761;42.126;24.752;2023-06-14T10:05:53;17.65;;;12.65;;
65174;SDS011;51761;42.126;24.752;2023-06-14T10:08:23;23.50;;;13.30;;
65174;SDS011;51761;42.126;24.752;2023-06-14T10:10:53;23.00;;;15.48;;
65174;SDS011;51761;42.126;24.752;2023-06-14T10:13:20;20.55;;;15.27;;
65174;SDS011;51761;42.126;24.752;2023-06-14T10:16:01;21.95;;;15.90;;
65174;SDS011;51761;42.126;24.752;2023-06-14T10:24:03;18.65;;;13.20;;
65174;SDS011;51761;42.126;24.752;2023-06-14T10:26:32;21.23;;;12.48;;
65174;SDS011;51761;42.126;24.752;2023-06-14T10:31:23;14.77;;;12.38;;
65174;SDS011;51761;42.126;24.752;2023-06-14T10:34:06;18.80;;;12.48;;
65174;SDS011;51761;42.126;24.752;2023-06-14T10:36:31;15.05;;;11.32;;
65174;SDS011;51761;42.126;24.752;2023-06-14T10:41:37;16.65;;;11.55;;
65174;SDS011;51761;42.126;24.752;2023-06-14T10:46:38;19.50;;;12.55;;
65174;SDS011;51761;42.126;24.752;2023-06-14T10:52:07;16.92;;;12.05;;
65174;SDS011;51761;42.126;24.752;2023-06-14T10:54:37;17.67;;;11.15;;
65174;SDS011;51761;42.126;24.752;2023-06-14T10:57:03;22.10;;;11.18;;
65174;SDS011;51761;42.126;24.752;2023-06-14T10:59:32;17.23;;;11.35;;
65174;SDS011;51761;42.126;24.752;2023-06-14T11:05:10;17.33;;;11.10;;
65174;SDS011;51761;42.126;24.752;2023-06-14T11:10:26;16.10;;;9.77;;
65174;SDS011;51761;42.126;24.752;2023-06-14T11:13:00;12.13;;;10.00;;
65174;SDS011;51761;42.126;24.752;2023-06-14T11:15:29;19.33;;;10.20;;
65174;SDS011;51761;42.126;24.752;2023-06-14T11:17:55;16.13;;;9.60;;
65174;SDS011;51761;42.126;24.752;2023-06-14T11:20:26;16.77;;;10.75;;
65174;SDS011;51761;42.126;24.752;2023-06-14T11:22:53;13.48;;;10.77;;
65174;SDS011;51761;42.126;24.752;2023-06-14T11:25:19;20.85;;;10.98;;
65174;SDS011;51761;42.126;24.752;2023-06-14T11:27:45;15.98;;;11.70;;
65174;SDS011;51761;42.126;24.752;2023-06-14T11:30:11;18.10;;;11.00;;
65174;SDS011;51761;42.126;24.752;2023-06-14T11:32:38;14.80;;;11.43;;
65174;SDS011;51761;42.126;24.752;2023-06-14T11:35:04;19.25;;;11.63;;
65174;SDS011;51761;42.126;24.752;2023-06-14T11:37:30;16.00;;;10.40;;
65174;SDS011;51761;42.126;24.752;2023-06-14T11:40:00;21.77;;;10.50;;
65174;SDS011;51761;42.126;24.752;2023-06-14T11:42:29;15.90;;;10.20;;
65174;SDS011;51761;42.126;24.752;2023-06-14T11:44:55;23.45;;;11.32;;
65174;SDS011;51761;42.126;24.752;2023-06-14T11:47:21;14.77;;;11.50;;
65174;SDS011;51761;42.126;24.752;2023-06-14T11:49:47;12.30;;;10.98;;
65174;SDS011;51761;42.126;24.752;2023-06-14T11:52:13;14.45;;;11.15;;
65174;SDS011;51761;42.126;24.752;2023-06-14T11:54:39;13.32;;;11.30;;
65174;SDS011;51761;42.126;24.752;2023-06-14T11:57:09;16.38;;;11.10;;
65174;SDS011;51761;42.126;24.752;2023-06-14T11:59:38;19.48;;;12.57;;
65174;SDS011;51761;42.126;24.752;2023-06-14T12:02:05;13.45;;;11.00;;
65174;SDS011;51761;42.126;24.752;2023-06-14T12:04:31;18.30;;;11.57;;
65174;SDS011;51761;42.126;24.752;2023-06-14T12:06:57;17.42;;;12.15;;
65174;SDS011;51761;42.126;24.752;2023-06-14T12:09:34;12.85;;;11.30;;
65174;SDS011;51761;42.126;24.752;2023-06-14T12:12:00;14.82;;;11.73;;
65174;SDS011;51761;42.126;24.752;2023-06-14T12:14:31;16.73;;;11.98;;
65174;SDS011;51761;42.126;24.752;2023-06-14T12:17:04;13.80;;;11.75;;
65174;SDS011;51761;42.126;24.752;2023-06-14T12:19:31;14.13;;;12.18;;
65174;SDS011;51761;42.126;24.752;2023-06-14T12:21:59;15.02;;;11.65;;
65174;SDS011;51761;42.126;24.752;2023-06-14T12:24:29;13.02;;;10.98;;
65174;SDS011;51761;42.126;24.752;2023-06-14T12:26:57;14.35;;;11.45;;
65174;SDS011;51761;42.126;24.752;2023-06-14T12:29:24;18.42;;;11.75;;
65174;SDS011;51761;42.126;24.752;2023-06-14T12:31:50;17.05;;;11.60;;
65174;SDS011;51761;42.126;24.752;2023-06-14T12:34:16;14.70;;;11.48;;
65174;SDS011;51761;42.126;24.752;2023-06-14T12:36:42;13.23;;;11.43;;
65174;SDS011;51761;42.126;24.752;2023-06-14T12:39:09;12.23;;;10.82;;
65174;SDS011;51761;42.126;24.752;2023-06-14T12:41:35;14.52;;;11.50;;
65174;SDS011;51761;42.126;24.752;2023-06-14T12:44:02;11.30;;;10.05;;
65174;SDS011;51761;42.126;24.752;2023-06-14T12:46:30;19.90;;;13.23;;
65174;SDS011;51761;42.126;24.752;2023-06-14T12:48:56;14.70;;;10.38;;
65174;SDS011;51761;42.126;24.752;2023-06-14T12:51:22;12.95;;;10.75;;
65174;SDS011;51761;42.126;24.752;2023-06-14T12:53:47;18.05;;;11.68;;
65174;SDS011;51761;42.126;24.752;2023-06-14T12:56:14;23.13;;;10.63;;
65174;SDS011;51761;42.126;24.752;2023-06-14T12:58:40;16.05;;;9.93;;
65174;SDS011;51761;42.126;24.752;2023-06-14T13:01:06;13.18;;;10.77;;
65174;SDS011;51761;42.126;24.752;2023-06-14T13:03:32;10.65;;;9.25;;
65174;SDS011;51761;42.126;24.752;2023-06-14T13:05:59;12.45;;;10.13;;
65174;SDS011;51761;42.126;24.752;2023-06-14T13:08:25;13.02;;;9.38;;
65174;SDS011;51761;42.126;24.752;2023-06-14T13:10:50;15.40;;;9.77;;
65174;SDS011;51761;42.126;24.752;2023-06-14T13:13:16;19.85;;;10.43;;
65174;SDS011;51761;42.126;24.752;2023-06-14T13:15:41;14.43;;;9.85;;
65174;SDS011;51761;42.126;24.752;2023-06-14T13:18:07;13.80;;;9.60;;
65174;SDS011;51761;42.126;24.752;2023-06-14T13:20:32;14.32;;;10.10;;
65174;SDS011;51761;42.126;24.752;2023-06-14T13:22:58;11.90;;;10.00;;
65174;SDS011;51761;42.126;24.752;2023-06-14T13:25:24;18.95;;;10.73;;
65174;SDS011;51761;42.126;24.752;2023-06-14T13:27:50;16.63;;;10.60;;
65174;SDS011;51761;42.126;24.752;2023-06-14T13:30:15;18.25;;;10.45;;
65174;SDS011;51761;42.126;24.752;2023-06-14T13:32:41;12.98;;;9.63;;
65174;SDS011;51761;42.126;24.752;2023-06-14T13:35:06;13.88;;;9.63;;
65174;SDS011;51761;42.126;24.752;2023-06-14T13:37:32;14.20;;;10.80;;
65174;SDS011;51761;42.126;24.752;2023-06-14T13:39:57;14.52;;;10.90;;
65174;SDS011;51761;42.126;24.752;2023-06-14T13:42:23;16.85;;;10.35;;
65174;SDS011;51761;42.126;24.752;2023-06-14T13:44:48;11.48;;;9.27;;
65174;SDS011;51761;42.126;24.752;2023-06-14T13:47:14;13.35;;;10.40;;
65174;SDS011;51761;42.126;24.752;2023-06-14T13:49:40;15.70;;;9.95;;
65174;SDS011;51761;42.126;24.752;2023-06-14T13:52:06;12.68;;;9.75;;
65174;SDS011;51761;42.126;24.752;2023-06-14T13:54:32;14.43;;;10.07;;
65174;SDS011;51761;42.126;24.752;2023-06-14T13:56:57;14.55;;;10.18;;
65174;SDS011;51761;42.126;24.752;2023-06-14T13:59:23;12.48;;;9.57;;
65174;SDS011;51761;42.126;24.752;2023-06-14T14:01:48;14.10;;;9.57;;
65174;SDS011;51761;42.126;24.752;2023-06-14T14:04:14;11.57;;;9.07;;
65174;SDS011;51761;42.126;24.752;2023-06-14T14:06:40;12.05;;;9.15;;
65174;SDS011;51761;42.126;24.752;2023-06-14T14:09:05;12.95;;;8.82;;
65174;SDS011;51761;42.126;24.752;2023-06-14T14:11:32;9.85;;;7.63;;
65174;SDS011;51761;42.126;24.752;2023-06-14T14:13:58;10.15;;;6.95;;
65174;SDS011;51761;42.126;24.752;2023-06-14T14:16:24;10.23;;;6.97;;
65174;SDS011;51761;42.126;24.752;2023-06-14T14:18:49;12.88;;;7.35;;
65174;SDS011;51761;42.126;24.752;2023-06-14T14:21:15;10.73;;;7.18;;
65174;SDS011;51761;42.126;24.752;2023-06-14T14:23:40;12.00;;;6.22;;
65174;SDS011;51761;42.126;24.752;2023-06-14T14:26:05;9.27;;;5.72;;
65174;SDS011;51761;42.126;24.752;2023-06-14T14:28:31;7.63;;;5.43;;
65174;SDS011;51761;42.126;24.752;2023-06-14T14:30:58;9.50;;;6.18;;
65174;SDS011;51761;42.126;24.752;2023-06-14T14:33:24;12.57;;;6.07;;
65174;SDS011;51761;42.126;24.752;2023-06-14T14:35:50;8.02;;;5.30;;